sensor_id;sensor_type;location;lat;lon;timestamp;pressure;altitude;pressure_sealevel;temperature;humidity
78741;BME280;68062;48.726;9.370;2024-01-07T00:01:15;98141.13;;;4.02;100.00
78741;BME280;68062;48.726;9.370;2024-01-07T00:03:44;98151.31;;;4.03;100.00
78741;BME280;68062;48.726;9.370;2024-01-07T00:06:13;98139.47;;;4.04;100.00
78741;BME280;68062;48.726;9.370;2024-01-07T00:08:42;98141.81;;;3.90;100.00
78741;BME280;68062;48.726;9.370;2024-01-07T00:11:10;98139.19;;;3.83;100.00
78741;BME280;68062;48.726;9.370;2024-01-07T00:13:38;98143.28;;;3.75;100.00
78741;BME280;68062;48.726;9.370;2024-01-07T00:16:07;98149.13;;;3.70;100.00
78741;BME280;68062;48.726;9.370;2024-01-07T00:18:35;98152.44;;;3.65;100.00
78741;BME280;68062;48.726;9.370;2024-01-07T00:21:03;98162.06;;;3.83;100.00
78741;BME280;68062;48.726;9.370;2024-01-07T00:23:31;98152.78;;;3.87;100.00
78741;BME280;68062;48.726;9.370;2024-01-07T00:26:01;98150.25;;;3.87;100.00
78741;BME280;68062;48.726;9.370;2024-01-07T00:28:51;98155.28;;;3.84;100.00
78741;BME280;68062;48.726;9.370;2024-01-07T00:31:19;98151.91;;;3.83;100.00
78741;BME280;68062;48.726;9.370;2024-01-07T00:33:47;98152.81;;;3.89;100.00
78741;BME280;68062;48.726;9.370;2024-01-07T00:36:15;98150.97;;;3.78;100.00
78741;BME280;68062;48.726;9.370;2024-01-07T00:38:45;98156.00;;;3.75;100.00
78741;BME280;68062;48.726;9.370;2024-01-07T00:41:14;98151.72;;;3.73;100.00
78741;BME280;68062;48.726;9.370;2024-01-07T00:43:42;98157.63;;;3.70;100.00
78741;BME280;68062;48.726;9.370;2024-01-07T00:46:11;98151.88;;;3.82;100.00
78741;BME280;68062;48.726;9.370;2024-01-07T00:48:40;98148.66;;;3.94;100.00
78741;BME280;68062;48.726;9.370;2024-01-07T00:51:09;98153.13;;;4.10;100.00
78741;BME280;68062;48.726;9.370;2024-01-07T00:53:40;98158.09;;;4.03;100.00
78741;BME280;68062;48.726;9.370;2024-01-07T00:56:07;98157.41;;;4.13;100.00
78741;BME280;68062;48.726;9.370;2024-01-07T00:58:37;98153.13;;;4.10;100.00
78741;BME280;68062;48.726;9.370;2024-01-07T01:01:05;98160.56;;;3.95;100.00
78741;BME280;68062;48.726;9.370;2024-01-07T01:03:35;98153.81;;;4.00;100.00
78741;BME280;68062;48.726;9.370;2024-01-07T01:06:04;98156.41;;;4.02;100.00
78741;BME280;68062;48.726;9.370;2024-01-07T01:08:33;98156.47;;;4.08;100.00
78741;BME280;68062;48.726;9.370;2024-01-07T01:11:01;98158.94;;;4.02;100.00
78741;BME280;68062;48.726;9.370;2024-01-07T01:13:29;98165.00;;;4.11;100.00
78741;BME280;68062;48.726;9.370;2024-01-07T01:15:58;98161.56;;;4.09;100.00
78741;BME280;68062;48.726;9.370;2024-01-07T01:18:26;98162.41;;;4.08;100.00
78741;BME280;68062;48.726;9.370;2024-01-07T01:20:55;98170.88;;;4.07;100.00
78741;BME280;68062;48.726;9.370;2024-01-07T01:23:23;98175.09;;;4.05;100.00
78741;BME280;68062;48.726;9.370;2024-01-07T01:25:51;98166.63;;;4.05;100.00
78741;BME280;68062;48.726;9.370;2024-01-07T01:28:18;98169.94;;;4.01;100.00
78741;BME280;68062;48.726;9.370;2024-01-07T01:30:46;98175.09;;;4.05;100.00
78741;BME280;68062;48.726;9.370;2024-01-07T01:33:16;98171.59;;;3.97;100.00
78741;BME280;68062;48.726;9.370;2024-01-07T01:35:44;98175.09;;;4.04;100.00
78741;BME280;68062;48.726;9.370;2024-01-07T01:38:12;98176.69;;;3.98;100.00
78741;BME280;68062;48.726;9.370;2024-01-07T01:40:40;98183.66;;;4.10;100.00
78741;BME280;68062;48.726;9.370;2024-01-07T01:43:08;98174.41;;;4.16;100.00
78741;BME280;68062;48.726;9.370;2024-01-07T01:45:36;98172.69;;;4.15;100.00
78741;BME280;68062;48.726;9.370;2024-01-07T01:48:05;98171.09;;;4.21;100.00
78741;BME280;68062;48.726;9.370;2024-01-07T01:50:35;98172.78;;;4.21;100.00
78741;BME280;68062;48.726;9.370;2024-01-07T01:53:03;98176.06;;;4.12;100.00
78741;BME280;68062;48.726;9.370;2024-01-07T01:55:31;98177.75;;;4.13;100.00
78741;BME280;68062;48.726;9.370;2024-01-07T01:58:00;98174.41;;;4.16;100.00
78741;BME280;68062;48.726;9.370;2024-01-07T02:00:30;98177.78;;;4.15;100.00
78741;BME280;68062;48.726;9.370;2024-01-07T02:02:58;98176.06;;;4.13;100.00
78741;BME280;68062;48.726;9.370;2024-01-07T02:05:27;98171.88;;;4.19;100.00
78741;BME280;68062;48.726;9.370;2024-01-07T02:07:57;98172.69;;;4.13;100.00
78741;BME280;68062;48.726;9.370;2024-01-07T02:10:25;98171.97;;;4.23;100.00
78741;BME280;68062;48.726;9.370;2024-01-07T02:12:53;98170.09;;;4.10;100.00
78741;BME280;68062;48.726;9.370;2024-01-07T02:15:21;98171.88;;;4.19;100.00
78741;BME280;68062;48.726;9.370;2024-01-07T02:17:49;98181.97;;;4.12;100.00
78741;BME280;68062;48.726;9.370;2024-01-07T02:20:17;98174.47;;;4.20;100.00
78741;BME280;68062;48.726;9.370;2024-01-07T02:22:45;98172.75;;;4.19;100.00
78741;BME280;68062;48.726;9.370;2024-01-07T02:25:14;98175.31;;;4.21;100.00
78741;BME280;68062;48.726;9.370;2024-01-07T02:27:42;98181.19;;;4.17;100.00
78741;BME280;68062;48.726;9.370;2024-01-07T02:30:11;98171.81;;;4.12;100.00
78741;BME280;68062;48.726;9.370;2024-01-07T02:32:39;98174.31;;;4.09;100.00
78741;BME280;68062;48.726;9.370;2024-01-07T02:35:08;98177.72;;;4.10;100.00
78741;BME280;68062;48.726;9.370;2024-01-07T02:37:36;98184.56;;;4.14;100.00
78741;BME280;68062;48.726;9.370;2024-01-07T02:40:04;98180.31;;;4.15;100.00
78741;BME280;68062;48.726;9.370;2024-01-07T02:42:34;98177.72;;;4.11;100.00
78741;BME280;68062;48.726;9.370;2024-01-07T02:45:02;98169.34;;;4.19;100.00
78741;BME280;68062;48.726;9.370;2024-01-07T02:47:30;98180.22;;;4.08;100.00
78741;BME280;68062;48.726;9.370;2024-01-07T02:49:59;98173.41;;;4.06;100.00
78741;BME280;68062;48.726;9.370;2024-01-07T02:52:27;98177.69;;;4.08;100.00
78741;BME280;68062;48.726;9.370;2024-01-07T02:54:55;98173.41;;;4.06;100.00
78741;BME280;68062;48.726;9.370;2024-01-07T02:57:23;98170.03;;;4.07;100.00
78741;BME280;68062;48.726;9.370;2024-01-07T02:59:52;98172.50;;;4.01;100.00
78741;BME280;68062;48.726;9.370;2024-01-07T03:02:20;98172.50;;;4.01;100.00
78741;BME280;68062;48.726;9.370;2024-01-07T03:04:49;98178.38;;;3.96;100.00
78741;BME280;68062;48.726;9.370;2024-01-07T03:07:17;98173.22;;;3.93;100.00
78741;BME280;68062;48.726;9.370;2024-01-07T03:09:45;98174.09;;;3.94;100.00
78741;BME280;68062;48.726;9.370;2024-01-07T03:12:14;98185.13;;;3.93;100.00
78741;BME280;68062;48.726;9.370;2024-01-07T03:14:44;98183.47;;;3.98;100.00
78741;BME280;68062;48.726;9.370;2024-01-07T03:17:14;98188.50;;;3.93;100.00
78741;BME280;68062;48.726;9.370;2024-01-07T03:19:44;98196.81;;;3.83;100.00
78741;BME280;68062;48.726;9.370;2024-01-07T03:22:12;98192.00;;;4.02;100.00
78741;BME280;68062;48.726;9.370;2024-01-07T03:24:41;98187.72;;;3.96;100.00
78741;BME280;68062;48.726;9.370;2024-01-07T03:27:08;98188.41;;;3.86;100.00
78741;BME280;68062;48.726;9.370;2024-01-07T03:29:36;98194.41;;;3.91;100.00
78741;BME280;68062;48.726;9.370;2024-01-07T03:32:04;98189.28;;;3.89;100.00
78741;BME280;68062;48.726;9.370;2024-01-07T03:34:34;98189.19;;;3.81;100.00
78741;BME280;68062;48.726;9.370;2024-01-07T03:37:02;98203.81;;;3.96;100.00
78741;BME280;68062;48.726;9.370;2024-01-07T03:39:32;98201.84;;;3.80;100.00
78741;BME280;68062;48.726;9.370;2024-01-07T03:41:59;98190.75;;;3.73;100.00
78741;BME280;68062;48.726;9.370;2024-01-07T03:44:27;98200.09;;;3.76;100.00
78741;BME280;68062;48.726;9.370;2024-01-07T03:46:55;98195.09;;;3.80;100.00
78741;BME280;68062;48.726;9.370;2024-01-07T03:49:23;98191.56;;;3.72;100.00
78741;BME280;68062;48.726;9.370;2024-01-07T03:51:52;98190.59;;;3.64;100.00
78741;BME280;68062;48.726;9.370;2024-01-07T03:54:23;98198.28;;;3.68;100.00
78741;BME280;68062;48.726;9.370;2024-01-07T03:56:50;98189.09;;;3.77;100.00
78741;BME280;68062;48.726;9.370;2024-01-07T03:59:18;98194.94;;;3.71;100.00
78741;BME280;68062;48.726;9.370;2024-01-07T04:01:46;98195.06;;;3.79;100.00
78741;BME280;68062;48.726;9.370;2024-01-07T04:04:14;98201.06;;;3.84;100.00
78741;BME280;68062;48.726;9.370;2024-01-07T04:06:42;98201.06;;;3.84;100.00
78741;BME280;68062;48.726;9.370;2024-01-07T04:09:12;98202.06;;;3.92;100.00
78741;BME280;68062;48.726;9.370;2024-01-07T04:11:40;98206.16;;;3.82;100.00
78741;BME280;68062;48.726;9.370;2024-01-07T04:14:08;98212.03;;;3.80;100.00
78741;BME280;68062;48.726;9.370;2024-01-07T04:16:36;98212.81;;;3.76;100.00
78741;BME280;68062;48.726;9.370;2024-01-07T04:19:04;98212.13;;;3.85;100.00
78741;BME280;68062;48.726;9.370;2024-01-07T04:21:32;98210.38;;;3.82;100.00
78741;BME280;68062;48.726;9.370;2024-01-07T04:24:00;98210.25;;;3.76;100.00
78741;BME280;68062;48.726;9.370;2024-01-07T04:26:29;98221.25;;;3.73;100.00
78741;BME280;68062;48.726;9.370;2024-01-07T04:28:57;98224.78;;;3.81;100.00
78741;BME280;68062;48.726;9.370;2024-01-07T04:31:25;98220.28;;;3.66;100.00
78741;BME280;68062;48.726;9.370;2024-01-07T04:33:55;98224.44;;;3.61;100.00
78741;BME280;68062;48.726;9.370;2024-01-07T04:36:23;98226.03;;;3.56;100.00
78741;BME280;68062;48.726;9.370;2024-01-07T04:38:50;98226.16;;;3.62;100.00
78741;BME280;68062;48.726;9.370;2024-01-07T04:41:19;98206.19;;;3.36;100.00
78741;BME280;68062;48.726;9.370;2024-01-07T04:43:48;98226.75;;;3.47;100.00
78741;BME280;68062;48.726;9.370;2024-01-07T04:46:16;98232.50;;;3.37;100.00
78741;BME280;68062;48.726;9.370;2024-01-07T04:48:44;98230.78;;;3.37;100.00
78741;BME280;68062;48.726;9.370;2024-01-07T04:51:12;98229.84;;;3.31;100.00
78741;BME280;68062;48.726;9.370;2024-01-07T04:53:41;98232.56;;;3.40;100.00
78741;BME280;68062;48.726;9.370;2024-01-07T04:56:09;98232.66;;;3.46;100.00
78741;BME280;68062;48.726;9.370;2024-01-07T04:58:37;98231.78;;;3.46;100.00
78741;BME280;68062;48.726;9.370;2024-01-07T05:01:06;98229.06;;;3.35;100.00
78741;BME280;68062;48.726;9.370;2024-01-07T05:03:34;98239.41;;;3.44;100.00
78741;BME280;68062;48.726;9.370;2024-01-07T05:06:02;98242.78;;;3.45;100.00
78741;BME280;68062;48.726;9.370;2024-01-07T05:08:31;98235.09;;;3.42;100.00
78741;BME280;68062;48.726;9.370;2024-01-07T05:10:59;98239.19;;;3.33;100.00
78741;BME280;68062;48.726;9.370;2024-01-07T05:13:27;98227.19;;;3.26;100.00
78741;BME280;68062;48.726;9.370;2024-01-07T05:15:55;98249.28;;;3.30;100.00
78741;BME280;68062;48.726;9.370;2024-01-07T05:18:25;98251.66;;;3.21;100.00
78741;BME280;68062;48.726;9.370;2024-01-07T05:20:53;98254.25;;;3.24;100.00
78741;BME280;68062;48.726;9.370;2024-01-07T05:23:21;98256.84;;;3.26;100.00
78741;BME280;68062;48.726;9.370;2024-01-07T05:25:50;98258.44;;;3.20;100.00
78741;BME280;68062;48.726;9.370;2024-01-07T05:28:18;98262.50;;;3.12;100.00
78741;BME280;68062;48.726;9.370;2024-01-07T05:30:48;98260.88;;;3.14;100.00
78741;BME280;68062;48.726;9.370;2024-01-07T05:33:17;98262.63;;;3.18;100.00
78741;BME280;68062;48.726;9.370;2024-01-07T05:35:46;98259.03;;;3.07;100.00
78741;BME280;68062;48.726;9.370;2024-01-07T05:38:14;98264.28;;;3.16;100.00
78741;BME280;68062;48.726;9.370;2024-01-07T05:40:42;98263.22;;;3.05;100.00
78741;BME280;68062;48.726;9.370;2024-01-07T05:43:10;98261.75;;;3.16;100.00
78741;BME280;68062;48.726;9.370;2024-01-07T05:45:38;98260.88;;;3.16;100.00
78741;BME280;68062;48.726;9.370;2024-01-07T05:48:06;98277.06;;;3.21;100.00
78741;BME280;68062;48.726;9.370;2024-01-07T05:50:35;98270.19;;;3.15;100.00
78741;BME280;68062;48.726;9.370;2024-01-07T05:53:04;98279.56;;;3.18;100.00
78741;BME280;68062;48.726;9.370;2024-01-07T05:55:32;98280.31;;;3.12;100.00
78741;BME280;68062;48.726;9.370;2024-01-07T05:57:59;98285.56;;;3.21;100.00
78741;BME280;68062;48.726;9.370;2024-01-07T06:00:28;98289.66;;;3.15;100.00
78741;BME280;68062;48.726;9.370;2024-01-07T06:02:56;98289.75;;;3.19;100.00
78741;BME280;68062;48.726;9.370;2024-01-07T06:05:25;98289.75;;;3.19;100.00
78741;BME280;68062;48.726;9.370;2024-01-07T06:07:53;98289.75;;;3.19;100.00
78741;BME280;68062;48.726;9.370;2024-01-07T06:10:24;98293.25;;;3.24;100.00
78741;BME280;68062;48.726;9.370;2024-01-07T06:12:53;98292.38;;;3.24;100.00
78741;BME280;68062;48.726;9.370;2024-01-07T06:15:21;98289.97;;;3.30;100.00
78741;BME280;68062;48.726;9.370;2024-01-07T06:17:49;98293.34;;;3.29;100.00
78741;BME280;68062;48.726;9.370;2024-01-07T06:20:17;98291.59;;;3.27;100.00
78741;BME280;68062;48.726;9.370;2024-01-07T06:22:45;98296.69;;;3.27;100.00
78741;BME280;68062;48.726;9.370;2024-01-07T06:25:13;98297.59;;;3.30;100.00
78741;BME280;68062;48.726;9.370;2024-01-07T06:27:43;98287.94;;;3.14;100.00
78741;BME280;68062;48.726;9.370;2024-01-07T06:30:12;98298.81;;;3.06;100.00
78741;BME280;68062;48.726;9.370;2024-01-07T06:32:40;98302.34;;;3.13;100.00
78741;BME280;68062;48.726;9.370;2024-01-07T06:35:08;98305.72;;;3.14;100.00
78741;BME280;68062;48.726;9.370;2024-01-07T06:37:36;98312.56;;;3.16;100.00
78741;BME280;68062;48.726;9.370;2024-01-07T06:40:05;98313.47;;;3.18;100.00
78741;BME280;68062;48.726;9.370;2024-01-07T06:42:33;98315.06;;;3.15;100.00
78741;BME280;68062;48.726;9.370;2024-01-07T06:45:05;98316.00;;;3.18;100.00
78741;BME280;68062;48.726;9.370;2024-01-07T06:47:33;98309.78;;;3.05;100.00
78741;BME280;68062;48.726;9.370;2024-01-07T06:50:01;98323.38;;;3.07;100.00
78741;BME280;68062;48.726;9.370;2024-01-07T06:52:29;98325.97;;;3.09;100.00
78741;BME280;68062;48.726;9.370;2024-01-07T06:54:58;98315.63;;;3.00;100.00
78741;BME280;68062;48.726;9.370;2024-01-07T06:57:26;98332.00;;;3.14;100.00
78741;BME280;68062;48.726;9.370;2024-01-07T06:59:53;98328.59;;;3.12;100.00
78741;BME280;68062;48.726;9.370;2024-01-07T07:02:23;98335.53;;;3.21;100.00
78741;BME280;68062;48.726;9.370;2024-01-07T07:04:50;98338.13;;;3.22;100.00
78741;BME280;68062;48.726;9.370;2024-01-07T07:07:19;98344.88;;;3.22;100.00
78741;BME280;68062;48.726;9.370;2024-01-07T07:09:47;98345.81;;;3.27;100.00
78741;BME280;68062;48.726;9.370;2024-01-07T07:12:15;98302.16;;;3.05;100.00
78741;BME280;68062;48.726;9.370;2024-01-07T07:14:43;98356.09;;;3.33;100.00
78741;BME280;68062;48.726;9.370;2024-01-07T07:17:10;98351.91;;;3.35;100.00
78741;BME280;68062;48.726;9.370;2024-01-07T07:19:40;98362.19;;;3.40;100.00
78741;BME280;68062;48.726;9.370;2024-01-07T07:22:11;98339.78;;;3.22;100.00
78741;BME280;68062;48.726;9.370;2024-01-07T07:24:40;98359.53;;;3.34;100.00
78741;BME280;68062;48.726;9.370;2024-01-07T07:27:08;98361.38;;;3.43;100.00
78741;BME280;68062;48.726;9.370;2024-01-07T07:29:36;98370.66;;;3.39;100.00
78741;BME280;68062;48.726;9.370;2024-01-07T07:32:05;98368.09;;;3.39;100.00
78741;BME280;68062;48.726;9.370;2024-01-07T07:34:33;98368.75;;;3.30;100.00
78741;BME280;68062;48.726;9.370;2024-01-07T07:37:03;98380.63;;;3.30;100.00
78741;BME280;68062;48.726;9.370;2024-01-07T07:39:31;98376.31;;;3.26;100.00
78741;BME280;68062;48.726;9.370;2024-01-07T07:42:00;98383.06;;;3.25;100.00
78741;BME280;68062;48.726;9.370;2024-01-07T07:44:28;98302.31;;;2.72;100.00
78741;BME280;68062;48.726;9.370;2024-01-07T07:46:56;98363.97;;;3.03;100.00
78741;BME280;68062;48.726;9.370;2024-01-07T07:49:24;98392.31;;;3.21;100.00
78741;BME280;68062;48.726;9.370;2024-01-07T07:51:55;98386.97;;;3.11;100.00
78741;BME280;68062;48.726;9.370;2024-01-07T07:54:26;98401.31;;;3.08;100.00
78741;BME280;68062;48.726;9.370;2024-01-07T07:56:53;98414.84;;;3.07;100.00
78741;BME280;68062;48.726;9.370;2024-01-07T07:59:22;98413.91;;;3.02;100.00
78741;BME280;68062;48.726;9.370;2024-01-07T08:01:50;98405.25;;;2.94;100.00
78741;BME280;68062;48.726;9.370;2024-01-07T08:04:18;98414.72;;;3.01;100.00
78741;BME280;68062;48.726;9.370;2024-01-07T08:06:46;98402.00;;;3.00;100.00
78741;BME280;68062;48.726;9.370;2024-01-07T08:09:14;98411.13;;;2.91;100.00
78741;BME280;68062;48.726;9.370;2024-01-07T08:11:44;98416.69;;;3.13;100.00
78741;BME280;68062;48.726;9.370;2024-01-07T08:14:11;98405.69;;;3.14;100.00
78741;BME280;68062;48.726;9.370;2024-01-07T08:16:39;98416.03;;;3.22;100.00
78741;BME280;68062;48.726;9.370;2024-01-07T08:19:07;98427.16;;;3.27;100.00
78741;BME280;68062;48.726;9.370;2024-01-07T08:21:35;98432.31;;;3.30;100.00
78741;BME280;68062;48.726;9.370;2024-01-07T08:24:03;98439.94;;;3.30;100.00
78741;BME280;68062;48.726;9.370;2024-01-07T08:26:32;98436.53;;;3.30;100.00
78741;BME280;68062;48.726;9.370;2024-01-07T08:29:02;98441.50;;;3.25;100.00
78741;BME280;68062;48.726;9.370;2024-01-07T08:31:30;98431.53;;;3.33;100.00
78741;BME280;68062;48.726;9.370;2024-01-07T08:33:59;98446.97;;;3.42;100.00
78741;BME280;68062;48.726;9.370;2024-01-07T08:36:28;98445.00;;;3.30;100.00
78741;BME280;68062;48.726;9.370;2024-01-07T08:38:57;98451.75;;;3.28;100.00
78741;BME280;68062;48.726;9.370;2024-01-07T08:41:24;98452.00;;;3.41;100.00
78741;BME280;68062;48.726;9.370;2024-01-07T08:43:52;98451.16;;;3.40;100.00
78741;BME280;68062;48.726;9.370;2024-01-07T08:46:21;98453.59;;;3.35;100.00
78741;BME280;68062;48.726;9.370;2024-01-07T08:48:50;98451.03;;;3.34;100.00
78741;BME280;68062;48.726;9.370;2024-01-07T08:51:18;98455.94;;;3.26;100.00
78741;BME280;68062;48.726;9.370;2024-01-07T08:53:46;98457.09;;;3.39;100.00
78741;BME280;68062;48.726;9.370;2024-01-07T08:56:13;98463.75;;;3.35;99.47
78741;BME280;68062;48.726;9.370;2024-01-07T08:58:41;98475.22;;;3.16;100.00
78741;BME280;68062;48.726;9.370;2024-01-07T09:01:09;98466.75;;;3.17;100.00
78741;BME280;68062;48.726;9.370;2024-01-07T09:03:39;98478.56;;;3.15;100.00
78741;BME280;68062;48.726;9.370;2024-01-07T09:06:06;98477.97;;;3.26;100.00
78741;BME280;68062;48.726;9.370;2024-01-07T09:08:35;98488.91;;;3.23;100.00
78741;BME280;68062;48.726;9.370;2024-01-07T09:11:03;98495.63;;;3.21;100.00
78741;BME280;68062;48.726;9.370;2024-01-07T09:13:33;98498.16;;;3.19;100.00
78741;BME280;68062;48.726;9.370;2024-01-07T09:16:00;98498.03;;;3.15;99.06
78741;BME280;68062;48.726;9.370;2024-01-07T09:18:31;98496.09;;;3.04;99.47
78741;BME280;68062;48.726;9.370;2024-01-07T09:21:00;98504.50;;;3.02;99.10
78741;BME280;68062;48.726;9.370;2024-01-07T09:23:28;98506.91;;;2.96;97.84
78741;BME280;68062;48.726;9.370;2024-01-07T09:25:57;98501.91;;;2.99;97.06
78741;BME280;68062;48.726;9.370;2024-01-07T09:28:25;98510.28;;;2.96;97.72
78741;BME280;68062;48.726;9.370;2024-01-07T09:30:53;98503.50;;;2.95;96.46
78741;BME280;68062;48.726;9.370;2024-01-07T09:33:21;98510.50;;;3.05;95.87
78741;BME280;68062;48.726;9.370;2024-01-07T09:35:50;98503.41;;;2.92;97.46
78741;BME280;68062;48.726;9.370;2024-01-07T09:38:21;98509.44;;;2.96;95.05
78741;BME280;68062;48.726;9.370;2024-01-07T09:40:49;98508.66;;;2.98;93.27
78741;BME280;68062;48.726;9.370;2024-01-07T09:43:17;98494.56;;;2.76;95.22
78741;BME280;68062;48.726;9.370;2024-01-07T09:45:46;98513.34;;;2.83;94.73
78741;BME280;68062;48.726;9.370;2024-01-07T09:48:14;98503.78;;;2.72;96.23
78741;BME280;68062;48.726;9.370;2024-01-07T09:50:42;98510.63;;;2.75;97.13
78741;BME280;68062;48.726;9.370;2024-01-07T09:53:15;98511.56;;;2.78;97.42
78741;BME280;68062;48.726;9.370;2024-01-07T09:55:57;98504.13;;;2.86;96.11
78741;BME280;68062;48.726;9.370;2024-01-07T09:58:33;98516.00;;;2.87;97.25
78741;BME280;68062;48.726;9.370;2024-01-07T10:01:01;98513.63;;;2.93;96.21
78741;BME280;68062;48.726;9.370;2024-01-07T10:03:31;98512.50;;;2.82;96.87
78741;BME280;68062;48.726;9.370;2024-01-07T10:06:00;98518.56;;;2.87;96.55
78741;BME280;68062;48.726;9.370;2024-01-07T10:08:29;98514.25;;;2.85;97.44
78741;BME280;68062;48.726;9.370;2024-01-07T10:10:59;98501.47;;;2.82;97.68
78741;BME280;68062;48.726;9.370;2024-01-07T10:13:28;98509.75;;;2.74;98.22
78741;BME280;68062;48.726;9.370;2024-01-07T10:15:56;98516.69;;;2.80;96.46
78741;BME280;68062;48.726;9.370;2024-01-07T10:18:25;98519.31;;;2.85;97.12
78741;BME280;68062;48.726;9.370;2024-01-07T10:20:53;98523.56;;;2.84;97.77
78741;BME280;68062;48.726;9.370;2024-01-07T10:23:21;98521.03;;;2.84;97.51
78741;BME280;68062;48.726;9.370;2024-01-07T10:25:49;98519.22;;;2.80;98.08
78741;BME280;68062;48.726;9.370;2024-01-07T10:28:18;98516.31;;;2.66;97.78
78741;BME280;68062;48.726;9.370;2024-01-07T10:30:50;98533.34;;;2.70;98.31
78741;BME280;68062;48.726;9.370;2024-01-07T10:33:19;98518.72;;;2.60;99.19
78741;BME280;68062;48.726;9.370;2024-01-07T10:35:52;98523.75;;;2.58;97.97
78741;BME280;68062;48.726;9.370;2024-01-07T10:38:21;98531.09;;;2.47;98.30
78741;BME280;68062;48.726;9.370;2024-01-07T10:40:52;98532.84;;;2.50;98.47
78741;BME280;68062;48.726;9.370;2024-01-07T10:43:26;98536.19;;;2.49;98.94
78741;BME280;68062;48.726;9.370;2024-01-07T10:45:59;98541.28;;;2.49;98.93
78741;BME280;68062;48.726;9.370;2024-01-07T10:48:37;98545.53;;;2.50;99.85
78741;BME280;68062;48.726;9.370;2024-01-07T10:51:11;98543.81;;;2.49;99.81
78741;BME280;68062;48.726;9.370;2024-01-07T10:53:49;98554.03;;;2.52;98.42
78741;BME280;68062;48.726;9.370;2024-01-07T10:56:22;98535.94;;;2.40;97.02
78741;BME280;68062;48.726;9.370;2024-01-07T10:58:53;98549.72;;;2.48;96.55
78741;BME280;68062;48.726;9.370;2024-01-07T11:01:21;98537.59;;;2.38;97.40
78741;BME280;68062;48.726;9.370;2024-01-07T11:03:56;98556.59;;;2.52;96.57
78741;BME280;68062;48.726;9.370;2024-01-07T11:06:28;98549.13;;;2.57;94.11
78741;BME280;68062;48.726;9.370;2024-01-07T11:09:04;98547.31;;;2.53;93.40
78741;BME280;68062;48.726;9.370;2024-01-07T11:11:41;98546.56;;;2.57;92.22
78741;BME280;68062;48.726;9.370;2024-01-07T11:14:36;98547.31;;;2.53;93.37
78741;BME280;68062;48.726;9.370;2024-01-07T11:17:06;98536.25;;;2.50;92.26
78741;BME280;68062;48.726;9.370;2024-01-07T11:19:35;98543.28;;;2.61;91.36
78741;BME280;68062;48.726;9.370;2024-01-07T11:22:23;98529.38;;;2.46;91.79
78741;BME280;68062;48.726;9.370;2024-01-07T11:24:52;98533.97;;;2.60;93.06
78741;BME280;68062;48.726;9.370;2024-01-07T11:27:21;98539.81;;;2.57;93.37
78741;BME280;68062;48.726;9.370;2024-01-07T11:29:54;98538.06;;;2.56;92.01
78741;BME280;68062;48.726;9.370;2024-01-07T11:32:23;98520.22;;;2.53;91.49
78741;BME280;68062;48.726;9.370;2024-01-07T11:34:53;98539.94;;;2.62;89.73
78741;BME280;68062;48.726;9.370;2024-01-07T11:37:23;98533.50;;;2.43;90.62
78741;BME280;68062;48.726;9.370;2024-01-07T11:39:55;98544.53;;;2.45;91.19
78741;BME280;68062;48.726;9.370;2024-01-07T11:42:23;98539.47;;;2.45;90.62
78741;BME280;68062;48.726;9.370;2024-01-07T11:44:54;98542.00;;;2.45;91.76
78741;BME280;68062;48.726;9.370;2024-01-07T11:47:24;98540.13;;;2.38;90.67
78741;BME280;68062;48.726;9.370;2024-01-07T11:49:57;98540.19;;;2.41;90.66
78741;BME280;68062;48.726;9.370;2024-01-07T11:52:25;98543.81;;;2.49;91.88
78741;BME280;68062;48.726;9.370;2024-01-07T11:54:53;98550.66;;;2.52;90.07
78741;BME280;68062;48.726;9.370;2024-01-07T11:57:21;98535.78;;;2.33;90.13
78741;BME280;68062;48.726;9.370;2024-01-07T11:59:50;98551.91;;;2.35;91.01
78741;BME280;68062;48.726;9.370;2024-01-07T12:02:19;98541.84;;;2.39;89.80
78741;BME280;68062;48.726;9.370;2024-01-07T12:04:48;98560.75;;;2.48;88.79
78741;BME280;68062;48.726;9.370;2024-01-07T12:07:16;98558.13;;;2.45;88.54
78741;BME280;68062;48.726;9.370;2024-01-07T12:09:44;98548.72;;;2.43;88.20
78741;BME280;68062;48.726;9.370;2024-01-07T12:12:12;98566.22;;;2.32;89.02
78741;BME280;68062;48.726;9.370;2024-01-07T12:14:40;98568.47;;;2.23;88.88
78741;BME280;68062;48.726;9.370;2024-01-07T12:17:09;98566.78;;;2.23;88.82
78741;BME280;68062;48.726;9.370;2024-01-07T12:19:41;98561.59;;;2.18;88.51
78741;BME280;68062;48.726;9.370;2024-01-07T12:22:10;98569.97;;;2.16;88.91
78741;BME280;68062;48.726;9.370;2024-01-07T12:24:38;98575.41;;;2.28;87.96
78741;BME280;68062;48.726;9.370;2024-01-07T12:27:06;98577.59;;;2.16;88.65
78741;BME280;68062;48.726;9.370;2024-01-07T12:29:34;98560.44;;;2.07;88.25
78741;BME280;68062;48.726;9.370;2024-01-07T12:32:02;98570.75;;;2.13;88.05
78741;BME280;68062;48.726;9.370;2024-01-07T12:34:30;98575.84;;;2.13;88.34
78741;BME280;68062;48.726;9.370;2024-01-07T12:37:02;98570.78;;;2.15;88.37
78741;BME280;68062;48.726;9.370;2024-01-07T12:39:30;98568.94;;;2.09;88.59
78741;BME280;68062;48.726;9.370;2024-01-07T12:41:58;98575.03;;;2.16;88.76
78741;BME280;68062;48.726;9.370;2024-01-07T12:44:27;98545.03;;;2.01;87.61
78741;BME280;68062;48.726;9.370;2024-01-07T12:46:55;98577.47;;;2.11;88.10
78741;BME280;68062;48.726;9.370;2024-01-07T12:49:23;98568.94;;;2.09;88.55
78741;BME280;68062;48.726;9.370;2024-01-07T12:51:51;98573.38;;;2.16;89.05
78741;BME280;68062;48.726;9.370;2024-01-07T12:54:21;98564.78;;;2.11;88.36
78741;BME280;68062;48.726;9.370;2024-01-07T12:56:51;98582.47;;;2.10;88.77
78741;BME280;68062;48.726;9.370;2024-01-07T12:59:19;98572.88;;;1.99;89.47
78741;BME280;68062;48.726;9.370;2024-01-07T13:01:47;98584.81;;;2.02;89.86
78741;BME280;68062;48.726;9.370;2024-01-07T13:04:18;98582.91;;;1.95;90.01
78741;BME280;68062;48.726;9.370;2024-01-07T13:06:47;98581.75;;;1.85;89.69
78741;BME280;68062;48.726;9.370;2024-01-07T13:09:15;98594.69;;;1.93;90.52
78741;BME280;68062;48.726;9.370;2024-01-07T13:11:44;98601.47;;;1.94;91.09